sensor_id;sensor_type;location;lat;lon;timestamp;temperature;humidity
8226;DHT22;4154;48.810;9.012;2022-09-30T00:00:26;9.80;99.90
8226;DHT22;4154;48.810;9.012;2022-09-30T00:02:53;9.80;99.90
8226;DHT22;4154;48.810;9.012;2022-09-30T00:05:19;9.80;99.90
8226;DHT22;4154;48.810;9.012;2022-09-30T00:07:44;9.80;99.90
8226;DHT22;4154;48.810;9.012;2022-09-30T00:10:10;9.70;99.90
8226;DHT22;4154;48.810;9.012;2022-09-30T00:15:04;9.60;99.90
8226;DHT22;4154;48.810;9.012;2022-09-30T00:17:31;9.60;99.90
8226;DHT22;4154;48.810;9.012;2022-09-30T00:22:23;9.50;99.90
8226;DHT22;4154;48.810;9.012;2022-09-30T00:24:49;9.50;99.90
8226;DHT22;4154;48.810;9.012;2022-09-30T00:27:15;9.50;99.90
8226;DHT22;4154;48.810;9.012;2022-09-30T00:29:43;9.50;99.90
8226;DHT22;4154;48.810;9.012;2022-09-30T00:32:09;9.50;99.90
8226;DHT22;4154;48.810;9.012;2022-09-30T00:37:01;9.50;99.90
8226;DHT22;4154;48.810;9.012;2022-09-30T00:39:28;9.50;99.90
8226;DHT22;4154;48.810;9.012;2022-09-30T00:42:00;9.50;99.90
8226;DHT22;4154;48.810;9.012;2022-09-30T00:50:27;9.60;99.90
8226;DHT22;4154;48.810;9.012;2022-09-30T00:55:59;9.60;99.90
8226;DHT22;4154;48.810;9.012;2022-09-30T00:58:47;9.60;99.90
8226;DHT22;4154;48.810;9.012;2022-09-30T01:01:19;9.60;99.90
8226;DHT22;4154;48.810;9.012;2022-09-30T01:03:47;9.60;99.90
8226;DHT22;4154;48.810;9.012;2022-09-30T01:06:30;9.60;99.90
8226;DHT22;4154;48.810;9.012;2022-09-30T01:08:56;9.60;99.90
8226;DHT22;4154;48.810;9.012;2022-09-30T01:11:28;9.60;99.90
8226;DHT22;4154;48.810;9.012;2022-09-30T01:13:59;9.60;99.90
8226;DHT22;4154;48.810;9.012;2022-09-30T01:37:23;9.70;99.90
8226;DHT22;4154;48.810;9.012;2022-09-30T01:43:28;9.60;99.90
8226;DHT22;4154;48.810;9.012;2022-09-30T01:46:32;9.60;99.90
8226;DHT22;4154;48.810;9.012;2022-09-30T01:49:26;9.60;99.90
8226;DHT22;4154;48.810;9.012;2022-09-30T01:52:14;9.60;99.90
8226;DHT22;4154;48.810;9.012;2022-09-30T02:00:16;9.60;99.90
8226;DHT22;4154;48.810;9.012;2022-09-30T02:02:57;9.70;99.90
8226;DHT22;4154;48.810;9.012;2022-09-30T02:08:29;9.70;99.90
8226;DHT22;4154;48.810;9.012;2022-09-30T02:11:15;9.70;99.90
8226;DHT22;4154;48.810;9.012;2022-09-30T02:14:01;9.60;99.90
8226;DHT22;4154;48.810;9.012;2022-09-30T02:16:42;9.60;99.90
8226;DHT22;4154;48.810;9.012;2022-09-30T02:19:28;9.70;99.90
8226;DHT22;4154;48.810;9.012;2022-09-30T02:22:03;9.60;99.90
8226;DHT22;4154;48.810;9.012;2022-09-30T02:24:58;9.60;99.90
8226;DHT22;4154;48.810;9.012;2022-09-30T02:27:36;9.60;99.90
8226;DHT22;4154;48.810;9.012;2022-09-30T02:30:08;9.60;99.90
8226;DHT22;4154;48.810;9.012;2022-09-30T02:35:22;9.50;99.90
8226;DHT22;4154;48.810;9.012;2022-09-30T02:37:54;9.50;99.90
8226;DHT22;4154;48.810;9.012;2022-09-30T02:40:47;9.50;99.90
8226;DHT22;4154;48.810;9.012;2022-09-30T02:49:43;9.50;99.90
8226;DHT22;4154;48.810;9.012;2022-09-30T02:52:27;9.50;99.90
8226;DHT22;4154;48.810;9.012;2022-09-30T02:58:07;9.50;99.90
8226;DHT22;4154;48.810;9.012;2022-09-30T03:00:39;9.40;99.90
8226;DHT22;4154;48.810;9.012;2022-09-30T03:03:31;9.40;99.90
8226;DHT22;4154;48.810;9.012;2022-09-30T03:06:08;9.30;99.90
8226;DHT22;4154;48.810;9.012;2022-09-30T03:08:35;9.30;99.90
8226;DHT22;4154;48.810;9.012;2022-09-30T03:11:01;9.40;99.90
8226;DHT22;4154;48.810;9.012;2022-09-30T03:16:35;9.40;99.90
8226;DHT22;4154;48.810;9.012;2022-09-30T03:25:59;9.30;99.90
8226;DHT22;4154;48.810;9.012;2022-09-30T03:34:21;9.40;99.90
8226;DHT22;4154;48.810;9.012;2022-09-30T03:37:00;9.40;99.90
8226;DHT22;4154;48.810;9.012;2022-09-30T03:39:56;9.40;99.90
8226;DHT22;4154;48.810;9.012;2022-09-30T03:42:35;9.30;99.90
8226;DHT22;4154;48.810;9.012;2022-09-30T03:45:12;9.40;99.90
8226;DHT22;4154;48.810;9.012;2022-09-30T03:47:47;9.40;99.90
8226;DHT22;4154;48.810;9.012;2022-09-30T03:50:20;9.40;99.90
8226;DHT22;4154;48.810;9.012;2022-09-30T03:52:49;9.40;99.90
8226;DHT22;4154;48.810;9.012;2022-09-30T03:55:16;9.40;99.90
8226;DHT22;4154;48.810;9.012;2022-09-30T03:57:43;9.50;99.90
8226;DHT22;4154;48.810;9.012;2022-09-30T04:00:11;9.40;99.90
8226;DHT22;4154;48.810;9.012;2022-09-30T04:02:37;9.40;99.90
8226;DHT22;4154;48.810;9.012;2022-09-30T04:05:04;9.50;99.90
8226;DHT22;4154;48.810;9.012;2022-09-30T04:07:31;9.50;99.90
8226;DHT22;4154;48.810;9.012;2022-09-30T04:09:57;9.50;99.90
8226;DHT22;4154;48.810;9.012;2022-09-30T04:12:22;9.50;99.90
8226;DHT22;4154;48.810;9.012;2022-09-30T04:14:48;9.50;99.90
8226;DHT22;4154;48.810;9.012;2022-09-30T04:17:14;9.50;99.90
8226;DHT22;4154;48.810;9.012;2022-09-30T04:19:40;9.50;99.90
8226;DHT22;4154;48.810;9.012;2022-09-30T04:22:07;9.50;99.90
8226;DHT22;4154;48.810;9.012;2022-09-30T04:24:33;9.50;99.90
8226;DHT22;4154;48.810;9.012;2022-09-30T04:26:59;9.50;99.90
8226;DHT22;4154;48.810;9.012;2022-09-30T04:29:26;9.50;99.90
8226;DHT22;4154;48.810;9.012;2022-09-30T04:31:52;9.50;99.90
8226;DHT22;4154;48.810;9.012;2022-09-30T04:36:45;9.50;99.90
8226;DHT22;4154;48.810;9.012;2022-09-30T04:39:10;9.50;99.90
8226;DHT22;4154;48.810;9.012;2022-09-30T04:41:36;9.60;99.90
8226;DHT22;4154;48.810;9.012;2022-09-30T04:44:03;9.50;99.90
8226;DHT22;4154;48.810;9.012;2022-09-30T04:46:33;9.40;99.90
8226;DHT22;4154;48.810;9.012;2022-09-30T04:49:02;9.40;99.90
8226;DHT22;4154;48.810;9.012;2022-09-30T04:51:29;9.40;99.90
8226;DHT22;4154;48.810;9.012;2022-09-30T04:53:55;9.40;99.90
8226;DHT22;4154;48.810;9.012;2022-09-30T04:56:21;9.40;99.90
8226;DHT22;4154;48.810;9.012;2022-09-30T04:58:49;9.40;99.90
8226;DHT22;4154;48.810;9.012;2022-09-30T05:01:17;9.40;99.90
8226;DHT22;4154;48.810;9.012;2022-09-30T05:03:44;9.40;99.90
8226;DHT22;4154;48.810;9.012;2022-09-30T05:06:10;9.40;99.90
8226;DHT22;4154;48.810;9.012;2022-09-30T05:08:37;9.40;99.90
8226;DHT22;4154;48.810;9.012;2022-09-30T05:11:05;9.30;99.90
8226;DHT22;4154;48.810;9.012;2022-09-30T05:13:39;9.40;99.90
8226;DHT22;4154;48.810;9.012;2022-09-30T05:16:06;9.30;99.90
8226;DHT22;4154;48.810;9.012;2022-09-30T05:18:34;9.30;99.90
8226;DHT22;4154;48.810;9.012;2022-09-30T05:21:00;9.30;99.90
8226;DHT22;4154;48.810;9.012;2022-09-30T05:23:28;9.20;99.90
8226;DHT22;4154;48.810;9.012;2022-09-30T05:25:56;9.20;99.90
8226;DHT22;4154;48.810;9.012;2022-09-30T05:28:22;9.20;99.90
8226;DHT22;4154;48.810;9.012;2022-09-30T05:30:51;9.30;99.90
8226;DHT22;4154;48.810;9.012;2022-09-30T05:33:22;9.00;99.90
8226;DHT22;4154;48.810;9.012;2022-09-30T05:35:48;9.30;99.90
8226;DHT22;4154;48.810;9.012;2022-09-30T05:38:13;9.30;99.90
8226;DHT22;4154;48.810;9.012;2022-09-30T05:40:39;9.30;99.90
8226;DHT22;4154;48.810;9.012;2022-09-30T05:43:06;9.30;99.90
8226;DHT22;4154;48.810;9.012;2022-09-30T05:45:33;9.20;99.90
8226;DHT22;4154;48.810;9.012;2022-09-30T05:47:59;9.20;99.90
8226;DHT22;4154;48.810;9.012;2022-09-30T05:50:25;9.20;99.90
8226;DHT22;4154;48.810;9.012;2022-09-30T05:52:51;9.20;99.90
8226;DHT22;4154;48.810;9.012;2022-09-30T05:55:19;9.20;99.90
8226;DHT22;4154;48.810;9.012;2022-09-30T05:57:48;9.20;99.90
8226;DHT22;4154;48.810;9.012;2022-09-30T06:00:17;9.20;99.90
8226;DHT22;4154;48.810;9.012;2022-09-30T06:02:44;9.20;99.90
8226;DHT22;4154;48.810;9.012;2022-09-30T06:05:10;9.30;99.90
8226;DHT22;4154;48.810;9.012;2022-09-30T06:07:38;9.30;99.90
8226;DHT22;4154;48.810;9.012;2022-09-30T06:10:06;9.30;99.90
8226;DHT22;4154;48.810;9.012;2022-09-30T06:12:35;9.40;99.90
8226;DHT22;4154;48.810;9.012;2022-09-30T06:15:03;9.40;99.90
8226;DHT22;4154;48.810;9.012;2022-09-30T06:17:29;9.40;99.90
8226;DHT22;4154;48.810;9.012;2022-09-30T06:19:55;9.50;99.90
8226;DHT22;4154;48.810;9.012;2022-09-30T06:22:21;9.50;99.90
8226;DHT22;4154;48.810;9.012;2022-09-30T06:27:13;9.60;99.90
8226;DHT22;4154;48.810;9.012;2022-09-30T06:29:39;9.70;99.90
8226;DHT22;4154;48.810;9.012;2022-09-30T06:32:05;9.70;99.90
8226;DHT22;4154;48.810;9.012;2022-09-30T06:34:32;9.80;99.90
8226;DHT22;4154;48.810;9.012;2022-09-30T06:36:57;9.80;99.90
8226;DHT22;4154;48.810;9.012;2022-09-30T06:39:23;9.80;99.90
8226;DHT22;4154;48.810;9.012;2022-09-30T06:41:52;9.90;99.90
8226;DHT22;4154;48.810;9.012;2022-09-30T06:44:17;9.90;99.90
8226;DHT22;4154;48.810;9.012;2022-09-30T06:46:43;9.90;99.90
8226;DHT22;4154;48.810;9.012;2022-09-30T06:49:09;9.90;99.90
8226;DHT22;4154;48.810;9.012;2022-09-30T06:51:35;10.00;99.90
8226;DHT22;4154;48.810;9.012;2022-09-30T06:54:01;10.00;99.90
8226;DHT22;4154;48.810;9.012;2022-09-30T06:56:27;10.00;99.90
8226;DHT22;4154;48.810;9.012;2022-09-30T06:58:53;10.00;99.90
8226;DHT22;4154;48.810;9.012;2022-09-30T07:01:21;10.10;99.90
8226;DHT22;4154;48.810;9.012;2022-09-30T07:03:49;10.10;99.90
8226;DHT22;4154;48.810;9.012;2022-09-30T07:06:20;10.20;99.90
8226;DHT22;4154;48.810;9.012;2022-09-30T07:08:46;10.20;99.90
8226;DHT22;4154;48.810;9.012;2022-09-30T07:11:12;10.20;99.90
8226;DHT22;4154;48.810;9.012;2022-09-30T07:13:45;10.30;99.90
8226;DHT22;4154;48.810;9.012;2022-09-30T07:16:12;10.30;99.90
8226;DHT22;4154;48.810;9.012;2022-09-30T07:18:39;10.30;99.90
8226;DHT22;4154;48.810;9.012;2022-09-30T07:21:07;10.30;99.90
8226;DHT22;4154;48.810;9.012;2022-09-30T07:23:35;10.30;99.90
8226;DHT22;4154;48.810;9.012;2022-09-30T07:26:02;10.40;99.90
8226;DHT22;4154;48.810;9.012;2022-09-30T07:28:32;10.30;99.90
8226;DHT22;4154;48.810;9.012;2022-09-30T07:31:08;10.30;99.90
8226;DHT22;4154;48.810;9.012;2022-09-30T07:33:37;10.50;99.90
8226;DHT22;4154;48.810;9.012;2022-09-30T07:36:06;10.40;99.90
8226;DHT22;4154;48.810;9.012;2022-09-30T07:38:34;10.40;99.90
8226;DHT22;4154;48.810;9.012;2022-09-30T07:41:11;10.40;99.90
8226;DHT22;4154;48.810;9.012;2022-09-30T07:43:41;10.50;99.90
8226;DHT22;4154;48.810;9.012;2022-09-30T07:46:19;10.50;99.90
8226;DHT22;4154;48.810;9.012;2022-09-30T07:48:49;10.50;99.90
8226;DHT22;4154;48.810;9.012;2022-09-30T07:51:31;10.60;99.90
8226;DHT22;4154;48.810;9.012;2022-09-30T07:54:06;10.60;99.90
8226;DHT22;4154;48.810;9.012;2022-09-30T07:56:36;10.60;99.90
8226;DHT22;4154;48.810;9.012;2022-09-30T07:59:04;10.70;99.90
8226;DHT22;4154;48.810;9.012;2022-09-30T08:01:31;10.70;99.90
8226;DHT22;4154;48.810;9.012;2022-09-30T08:03:59;10.70;99.90
8226;DHT22;4154;48.810;9.012;2022-09-30T08:06:28;10.70;99.90
8226;DHT22;4154;48.810;9.012;2022-09-30T08:08:56;10.80;99.90
8226;DHT22;4154;48.810;9.012;2022-09-30T08:11:24;10.80;99.90
8226;DHT22;4154;48.810;9.012;2022-09-30T08:13:51;10.80;99.90
8226;DHT22;4154;48.810;9.012;2022-09-30T08:16:19;10.80;99.90
8226;DHT22;4154;48.810;9.012;2022-09-30T08:18:46;10.90;99.90
8226;DHT22;4154;48.810;9.012;2022-09-30T08:21:12;10.90;99.90
8226;DHT22;4154;48.810;9.012;2022-09-30T08:23:38;10.90;99.90
8226;DHT22;4154;48.810;9.012;2022-09-30T08:26:10;10.90;99.90
8226;DHT22;4154;48.810;9.012;2022-09-30T08:28:38;11.00;99.90
8226;DHT22;4154;48.810;9.012;2022-09-30T08:31:08;11.00;99.90
8226;DHT22;4154;48.810;9.012;2022-09-30T08:33:36;11.10;99.90
8226;DHT22;4154;48.810;9.012;2022-09-30T08:36:08;11.10;99.90
8226;DHT22;4154;48.810;9.012;2022-09-30T08:38:45;11.20;99.90
8226;DHT22;4154;48.810;9.012;2022-09-30T08:52:35;11.40;99.90
8226;DHT22;4154;48.810;9.012;2022-09-30T08:55:05;11.40;99.90
8226;DHT22;4154;48.810;9.012;2022-09-30T08:57:39;11.50;99.90
8226;DHT22;4154;48.810;9.012;2022-09-30T09:00:14;11.50;99.90
8226;DHT22;4154;48.810;9.012;2022-09-30T09:02:55;11.60;99.90
8226;DHT22;4154;48.810;9.012;2022-09-30T09:08:10;11.70;99.90
8226;DHT22;4154;48.810;9.012;2022-09-30T09:11:15;11.80;99.90
8226;DHT22;4154;48.810;9.012;2022-09-30T09:22:26;11.90;99.90
8226;DHT22;4154;48.810;9.012;2022-09-30T09:24:55;11.90;99.90
8226;DHT22;4154;48.810;9.012;2022-09-30T09:27:29;12.00;99.90
8226;DHT22;4154;48.810;9.012;2022-09-30T09:30:19;12.00;99.90
8226;DHT22;4154;48.810;9.012;2022-09-30T09:32:55;12.00;99.90
8226;DHT22;4154;48.810;9.012;2022-09-30T09:43:45;12.10;99.90
8226;DHT22;4154;48.810;9.012;2022-09-30T09:46:42;12.20;99.90
8226;DHT22;4154;48.810;9.012;2022-09-30T09:54:43;12.20;99.90
8226;DHT22;4154;48.810;9.012;2022-09-30T09:57:16;12.30;99.90
8226;DHT22;4154;48.810;9.012;2022-09-30T10:03:11;12.40;99.90
8226;DHT22;4154;48.810;9.012;2022-09-30T10:06:14;12.50;99.90
8226;DHT22;4154;48.810;9.012;2022-09-30T10:08:54;12.50;99.90
8226;DHT22;4154;48.810;9.012;2022-09-30T10:11:25;12.60;99.90
8226;DHT22;4154;48.810;9.012;2022-09-30T10:13:56;12.60;99.90
8226;DHT22;4154;48.810;9.012;2022-09-30T10:16:33;12.70;99.90
8226;DHT22;4154;48.810;9.012;2022-09-30T10:19:19;12.70;99.90
8226;DHT22;4154;48.810;9.012;2022-09-30T10:21:47;12.70;99.90
8226;DHT22;4154;48.810;9.012;2022-09-30T10:24:30;12.70;99.90
8226;DHT22;4154;48.810;9.012;2022-09-30T10:26:56;12.70;99.90
8226;DHT22;4154;48.810;9.012;2022-09-30T10:29:31;12.80;99.90
8226;DHT22;4154;48.810;9.012;2022-09-30T10:32:00;12.80;99.90
8226;DHT22;4154;48.810;9.012;2022-09-30T10:34:30;12.90;99.90
8226;DHT22;4154;48.810;9.012;2022-09-30T10:37:01;12.90;99.90
8226;DHT22;4154;48.810;9.012;2022-09-30T10:39:36;12.90;99.90
8226;DHT22;4154;48.810;9.012;2022-09-30T10:42:20;12.90;99.90
8226;DHT22;4154;48.810;9.012;2022-09-30T10:44:54;12.90;99.90
8226;DHT22;4154;48.810;9.012;2022-09-30T10:47:47;13.00;99.90
8226;DHT22;4154;48.810;9.012;2022-09-30T10:50:19;13.10;99.90
8226;DHT22;4154;48.810;9.012;2022-09-30T10:55:33;13.10;99.90
8226;DHT22;4154;48.810;9.012;2022-09-30T10:58:29;13.10;99.90
8226;DHT22;4154;48.810;9.012;2022-09-30T11:04:27;13.20;99.90
8226;DHT22;4154;48.810;9.012;2022-09-30T11:06:39;13.20;99.90
8226;DHT22;4154;48.810;9.012;2022-09-30T11:09:21;13.20;99.90
8226;DHT22;4154;48.810;9.012;2022-09-30T11:15:27;13.40;99.90
8226;DHT22;4154;48.810;9.012;2022-09-30T11:18:46;13.50;99.90
8226;DHT22;4154;48.810;9.012;2022-09-30T11:21:20;13.50;99.90
8226;DHT22;4154;48.810;9.012;2022-09-30T11:24:38;13.50;99.90
8226;DHT22;4154;48.810;9.012;2022-09-30T11:27:24;13.60;99.90
8226;DHT22;4154;48.810;9.012;2022-09-30T11:30:12;13.70;99.80
8226;DHT22;4154;48.810;9.012;2022-09-30T11:35:57;13.80;99.30
8226;DHT22;4154;48.810;9.012;2022-09-30T11:39:49;13.80;99.00
8226;DHT22;4154;48.810;9.012;2022-09-30T11:41:52;13.80;98.80
8226;DHT22;4154;48.810;9.012;2022-09-30T11:44:39;13.80;98.60
8226;DHT22;4154;48.810;9.012;2022-09-30T11:52:46;14.00;97.20
8226;DHT22;4154;48.810;9.012;2022-09-30T11:55:50;14.10;97.40
8226;DHT22;4154;48.810;9.012;2022-09-30T11:58:46;14.10;97.40
8226;DHT22;4154;48.810;9.012;2022-09-30T12:01:36;14.10;97.70
8226;DHT22;4154;48.810;9.012;2022-09-30T12:07:15;14.20;97.80
8226;DHT22;4154;48.810;9.012;2022-09-30T12:09:48;14.20;97.50
8226;DHT22;4154;48.810;9.012;2022-09-30T12:12:18;14.20;97.20
8226;DHT22;4154;48.810;9.012;2022-09-30T12:15:00;14.20;96.90
8226;DHT22;4154;48.810;9.012;2022-09-30T12:17:34;14.20;97.10
8226;DHT22;4154;48.810;9.012;2022-09-30T12:20:16;14.20;96.80
8226;DHT22;4154;48.810;9.012;2022-09-30T12:22:56;14.20;96.70
8226;DHT22;4154;48.810;9.012;2022-09-30T12:25:30;14.20;96.60
8226;DHT22;4154;48.810;9.012;2022-09-30T12:28:31;14.30;95.90
8226;DHT22;4154;48.810;9.012;2022-09-30T12:34:43;14.30;96.30
8226;DHT22;4154;48.810;9.012;2022-09-30T12:43:45;14.40;98.50
8226;DHT22;4154;48.810;9.012;2022-09-30T12:47:03;14.30;96.50
8226;DHT22;4154;48.810;9.012;2022-09-30T12:49:38;14.50;95.60
8226;DHT22;4154;48.810;9.012;2022-09-30T12:52:18;14.50;95.00
8226;DHT22;4154;48.810;9.012;2022-09-30T12:54:51;14.60;94.90
8226;DHT22;4154;48.810;9.012;2022-09-30T12:57:29;14.70;94.80
8226;DHT22;4154;48.810;9.012;2022-09-30T13:02:43;14.70;95.20
8226;DHT22;4154;48.810;9.012;2022-09-30T13:13:22;14.70;94.70
8226;DHT22;4154;48.810;9.012;2022-09-30T13:15:54;14.70;94.80
8226;DHT22;4154;48.810;9.012;2022-09-30T13:23:45;14.50;95.50
8226;DHT22;4154;48.810;9.012;2022-09-30T13:26:31;14.70;94.50
8226;DHT22;4154;48.810;9.012;2022-09-30T13:31:31;14.70;95.20
8226;DHT22;4154;48.810;9.012;2022-09-30T13:34:27;14.70;94.90
8226;DHT22;4154;48.810;9.012;2022-09-30T13:37:03;14.70;94.40
8226;DHT22;4154;48.810;9.012;2022-09-30T13:39:47;14.70;94.30
8226;DHT22;4154;48.810;9.012;2022-09-30T13:47:49;14.60;95.60
8226;DHT22;4154;48.810;9.012;2022-09-30T13:50:46;14.70;95.30
8226;DHT22;4154;48.810;9.012;2022-09-30T13:53:26;14.60;95.60
8226;DHT22;4154;48.810;9.012;2022-09-30T13:55:58;14.60;96.30
8226;DHT22;4154;48.810;9.012;2022-09-30T13:58:56;14.60;96.20
8226;DHT22;4154;48.810;9.012;2022-09-30T14:14:05;14.60;96.30
8226;DHT22;4154;48.810;9.012;2022-09-30T14:19:54;14.50;96.80
8226;DHT22;4154;48.810;9.012;2022-09-30T14:22:35;14.50;96.80
8226;DHT22;4154;48.810;9.012;2022-09-30T14:25:02;14.50;96.60
8226;DHT22;4154;48.810;9.012;2022-09-30T14:28:02;14.50;96.50
8226;DHT22;4154;48.810;9.012;2022-09-30T14:30:39;14.50;96.10
8226;DHT22;4154;48.810;9.012;2022-09-30T14:33:23;14.50;96.10
8226;DHT22;4154;48.810;9.012;2022-09-30T14:35:52;14.50;96.20
8226;DHT22;4154;48.810;9.012;2022-09-30T14:38:22;14.50;96.30
8226;DHT22;4154;48.810;9.012;2022-09-30T14:40:56;14.60;96.40
8226;DHT22;4154;48.810;9.012;2022-09-30T14:43:27;14.30;98.50
8226;DHT22;4154;48.810;9.012;2022-09-30T14:46:04;14.60;96.60
8226;DHT22;4154;48.810;9.012;2022-09-30T14:48:36;14.60;96.50
8226;DHT22;4154;48.810;9.012;2022-09-30T14:51:07;14.70;96.30
8226;DHT22;4154;48.810;9.012;2022-09-30T14:53:39;14.70;97.80
8226;DHT22;4154;48.810;9.012;2022-09-30T14:56:34;14.70;95.80
8226;DHT22;4154;48.810;9.012;2022-09-30T14:59:44;14.70;96.00
8226;DHT22;4154;48.810;9.012;2022-09-30T15:02:12;14.70;95.70
8226;DHT22;4154;48.810;9.012;2022-09-30T15:04:47;14.70;95.90
8226;DHT22;4154;48.810;9.012;2022-09-30T15:07:18;14.70;96.30
8226;DHT22;4154;48.810;9.012;2022-09-30T15:09:45;14.70;96.50
8226;DHT22;4154;48.810;9.012;2022-09-30T15:12:18;14.70;96.30
8226;DHT22;4154;48.810;9.012;2022-09-30T15:14:52;14.80;96.30
8226;DHT22;4154;48.810;9.012;2022-09-30T15:17:37;14.70;95.80
8226;DHT22;4154;48.810;9.012;2022-09-30T15:20:29;14.70;95.50
8226;DHT22;4154;48.810;9.012;2022-09-30T15:23:00;14.70;95.40
8226;DHT22;4154;48.810;9.012;2022-09-30T15:25:28;14.70;95.60
8226;DHT22;4154;48.810;9.012;2022-09-30T15:27:55;14.70;95.50
8226;DHT22;4154;48.810;9.012;2022-09-30T15:30:27;14.80;95.90
8226;DHT22;4154;48.810;9.012;2022-09-30T15:33:02;14.80;95.90
8226;DHT22;4154;48.810;9.012;2022-09-30T15:35:30;14.80;95.80
8226;DHT22;4154;48.810;9.012;2022-09-30T15:38:20;14.90;96.20
8226;DHT22;4154;48.810;9.012;2022-09-30T15:41:07;14.90;96.00
8226;DHT22;4154;48.810;9.012;2022-09-30T15:43:50;14.90;98.10
8226;DHT22;4154;48.810;9.012;2022-09-30T15:48:43;14.80;96.10
8226;DHT22;4154;48.810;9.012;2022-09-30T15:51:41;14.70;96.10
8226;DHT22;4154;48.810;9.012;2022-09-30T15:54:25;14.70;96.30
8226;DHT22;4154;48.810;9.012;2022-09-30T15:56:57;14.60;96.30
8226;DHT22;4154;48.810;9.012;2022-09-30T15:59:57;14.50;96.40
8226;DHT22;4154;48.810;9.012;2022-09-30T16:02:26;14.40;96.40
8226;DHT22;4154;48.810;9.012;2022-09-30T16:04:54;14.30;96.10
8226;DHT22;4154;48.810;9.012;2022-09-30T16:07:22;14.30;96.10
8226;DHT22;4154;48.810;9.012;2022-09-30T16:09:54;14.30;96.30
8226;DHT22;4154;48.810;9.012;2022-09-30T16:12:28;14.20;96.60
8226;DHT22;4154;48.810;9.012;2022-09-30T16:15:08;14.20;96.80
8226;DHT22;4154;48.810;9.012;2022-09-30T16:17:44;14.10;96.70
8226;DHT22;4154;48.810;9.012;2022-09-30T16:25:26;14.00;96.40
8226;DHT22;4154;48.810;9.012;2022-09-30T16:28:10;14.00;96.70
8226;DHT22;4154;48.810;9.012;2022-09-30T16:30:46;14.00;96.70
8226;DHT22;4154;48.810;9.012;2022-09-30T16:33:14;14.00;97.00
8226;DHT22;4154;48.810;9.012;2022-09-30T16:35:41;13.90;97.20
8226;DHT22;4154;48.810;9.012;2022-09-30T16:38:12;13.80;97.40
8226;DHT22;4154;48.810;9.012;2022-09-30T16:40:39;13.80;97.50
8226;DHT22;4154;48.810;9.012;2022-09-30T16:43:06;13.80;97.60
8226;DHT22;4154;48.810;9.012;2022-09-30T16:45:35;13.70;97.80
8226;DHT22;4154;48.810;9.012;2022-09-30T16:48:10;13.70;97.90
8226;DHT22;4154;48.810;9.012;2022-09-30T16:53:16;13.60;98.10
8226;DHT22;4154;48.810;9.012;2022-09-30T16:55:42;13.60;98.30
8226;DHT22;4154;48.810;9.012;2022-09-30T16:58:11;13.50;98.20
8226;DHT22;4154;48.810;9.012;2022-09-30T17:00:40;13.50;98.20
8226;DHT22;4154;48.810;9.012;2022-09-30T17:03:15;13.40;98.20
8226;DHT22;4154;48.810;9.012;2022-09-30T17:05:43;13.40;98.20
8226;DHT22;4154;48.810;9.012;2022-09-30T17:08:12;13.30;98.20
8226;DHT22;4154;48.810;9.012;2022-09-30T17:10:45;13.30;98.30
8226;DHT22;4154;48.810;9.012;2022-09-30T17:13:17;13.20;98.30
8226;DHT22;4154;48.810;9.012;2022-09-30T17:15:50;13.20;98.30
8226;DHT22;4154;48.810;9.012;2022-09-30T17:18:17;13.10;98.30
8226;DHT22;4154;48.810;9.012;2022-09-30T17:20:45;13.10;98.20
8226;DHT22;4154;48.810;9.012;2022-09-30T17:23:17;13.00;98.20
8226;DHT22;4154;48.810;9.012;2022-09-30T17:25:47;13.00;98.30
8226;DHT22;4154;48.810;9.012;2022-09-30T17:28:13;13.00;98.50
8226;DHT22;4154;48.810;9.012;2022-09-30T17:30:45;12.90;98.60
8226;DHT22;4154;48.810;9.012;2022-09-30T17:33:13;12.90;98.70
8226;DHT22;4154;48.810;9.012;2022-09-30T17:35:39;12.90;98.70
8226;DHT22;4154;48.810;9.012;2022-09-30T17:38:08;12.80;98.70
8226;DHT22;4154;48.810;9.012;2022-09-30T17:40:36;12.80;98.70
8226;DHT22;4154;48.810;9.012;2022-09-30T17:43:21;12.20;99.90
8226;DHT22;4154;48.810;9.012;2022-09-30T17:45:47;12.70;98.90
8226;DHT22;4154;48.810;9.012;2022-09-30T17:48:15;12.60;99.00
8226;DHT22;4154;48.810;9.012;2022-09-30T17:50:45;12.60;99.10
8226;DHT22;4154;48.810;9.012;2022-09-30T17:53:13;12.60;99.20
8226;DHT22;4154;48.810;9.012;2022-09-30T17:55:44;12.60;99.30
8226;DHT22;4154;48.810;9.012;2022-09-30T17:58:13;12.50;99.30
8226;DHT22;4154;48.810;9.012;2022-09-30T18:00:40;12.50;99.40
8226;DHT22;4154;48.810;9.012;2022-09-30T18:03:06;12.40;99.40
8226;DHT22;4154;48.810;9.012;2022-09-30T18:05:36;12.40;99.50
8226;DHT22;4154;48.810;9.012;2022-09-30T18:08:02;12.40;99.50
8226;DHT22;4154;48.810;9.012;2022-09-30T18:10:29;12.40;99.60
8226;DHT22;4154;48.810;9.012;2022-09-30T18:12:55;12.30;99.60
8226;DHT22;4154;48.810;9.012;2022-09-30T18:15:21;12.30;99.60
8226;DHT22;4154;48.810;9.012;2022-09-30T18:17:47;12.20;99.50
8226;DHT22;4154;48.810;9.012;2022-09-30T18:20:14;12.20;99.60
8226;DHT22;4154;48.810;9.012;2022-09-30T18:22:40;12.10;99.90
8226;DHT22;4154;48.810;9.012;2022-09-30T18:25:06;12.00;99.70
8226;DHT22;4154;48.810;9.012;2022-09-30T18:27:51;12.00;99.80
8226;DHT22;4154;48.810;9.012;2022-09-30T18:30:25;11.90;99.90
8226;DHT22;4154;48.810;9.012;2022-09-30T18:32:53;11.80;99.90
8226;DHT22;4154;48.810;9.012;2022-09-30T18:35:21;11.70;99.90
8226;DHT22;4154;48.810;9.012;2022-09-30T18:37:49;11.70;99.90
8226;DHT22;4154;48.810;9.012;2022-09-30T18:40:21;11.70;99.90
8226;DHT22;4154;48.810;9.012;2022-09-30T18:42:53;11.70;99.90
8226;DHT22;4154;48.810;9.012;2022-09-30T18:45:26;11.70;99.90
8226;DHT22;4154;48.810;9.012;2022-09-30T18:48:03;11.60;99.90
8226;DHT22;4154;48.810;9.012;2022-09-30T18:50:30;11.50;99.90
8226;DHT22;4154;48.810;9.012;2022-09-30T18:52:57;11.50;99.90
8226;DHT22;4154;48.810;9.012;2022-09-30T18:55:23;11.60;99.90
8226;DHT22;4154;48.810;9.012;2022-09-30T18:57:52;11.40;99.90
8226;DHT22;4154;48.810;9.012;2022-09-30T19:00:19;11.40;99.90
8226;DHT22;4154;48.810;9.012;2022-09-30T19:02:45;11.40;99.90
8226;DHT22;4154;48.810;9.012;2022-09-30T19:05:12;11.40;99.90
8226;DHT22;4154;48.810;9.012;2022-09-30T19:07:41;11.30;99.90
8226;DHT22;4154;48.810;9.012;2022-09-30T19:10:07;11.30;99.90
8226;DHT22;4154;48.810;9.012;2022-09-30T19:12:35;11.30;99.90
8226;DHT22;4154;48.810;9.012;2022-09-30T19:15:07;11.30;99.90
8226;DHT22;4154;48.810;9.012;2022-09-30T19:17:34;11.20;99.90
8226;DHT22;4154;48.810;9.012;2022-09-30T19:20:03;11.20;99.90
8226;DHT22;4154;48.810;9.012;2022-09-30T19:22:32;11.10;99.90
8226;DHT22;4154;48.810;9.012;2022-09-30T19:25:05;11.10;99.90
8226;DHT22;4154;48.810;9.012;2022-09-30T19:27:34;11.10;99.90
8226;DHT22;4154;48.810;9.012;2022-09-30T19:30:07;11.00;99.90
8226;DHT22;4154;48.810;9.012;2022-09-30T19:32:34;10.90;99.90
8226;DHT22;4154;48.810;9.012;2022-09-30T19:35:02;10.90;99.90
8226;DHT22;4154;48.810;9.012;2022-09-30T19:37:28;10.90;99.90
8226;DHT22;4154;48.810;9.012;2022-09-30T19:39:54;10.90;99.90
8226;DHT22;4154;48.810;9.012;2022-09-30T19:42:20;10.80;99.90
8226;DHT22;4154;48.810;9.012;2022-09-30T19:44:48;10.70;99.90
8226;DHT22;4154;48.810;9.012;2022-09-30T19:49:41;10.70;99.90
8226;DHT22;4154;48.810;9.012;2022-09-30T19:52:07;10.60;99.90
8226;DHT22;4154;48.810;9.012;2022-09-30T19:54:32;10.60;99.90
8226;DHT22;4154;48.810;9.012;2022-09-30T19:56:58;10.50;99.90
8226;DHT22;4154;48.810;9.012;2022-09-30T19:59:24;10.50;99.90
8226;DHT22;4154;48.810;9.012;2022-09-30T20:01:50;10.50;99.90
8226;DHT22;4154;48.810;9.012;2022-09-30T20:04:15;10.50;99.90
8226;DHT22;4154;48.810;9.012;2022-09-30T20:06:43;10.50;99.90
8226;DHT22;4154;48.810;9.012;2022-09-30T20:09:09;10.50;99.90